createdAt,value
2022-11-30T00:01:31.125Z,31.60
2022-11-30T00:03:59.556Z,30.10
2022-11-30T00:06:27.178Z,29.88
2022-11-30T00:08:56.457Z,28.20
2022-11-30T00:11:26.336Z,30.35
2022-11-30T00:13:54.113Z,29.63
2022-11-30T00:16:22.193Z,30.60
2022-11-30T00:18:50.322Z,29.58
2022-11-30T00:21:18.262Z,30.17
2022-11-30T00:23:47.262Z,28.98
2022-11-30T00:26:18.204Z,25.52
2022-11-30T00:28:47.605Z,27.15
2022-11-30T00:31:18.437Z,26.65
2022-11-30T00:33:46.582Z,26.88
2022-11-30T00:36:17.020Z,29.33
2022-11-30T00:38:45.976Z,28.77
2022-11-30T00:41:13.722Z,28.00
2022-11-30T00:43:41.690Z,30.65
2022-11-30T00:46:10.102Z,26.58
2022-11-30T00:48:39.240Z,27.40
2022-11-30T00:51:09.260Z,26.25
2022-11-30T00:53:37.536Z,27.85
2022-11-30T00:56:05.977Z,27.88
2022-11-30T00:58:33.826Z,29.02
2022-11-30T01:01:01.615Z,28.42
2022-11-30T01:03:29.409Z,27.92
2022-11-30T01:06:05.583Z,27.50
2022-11-30T01:08:34.150Z,29.63
2022-11-30T01:11:07.870Z,26.55
2022-11-30T01:13:35.544Z,27.70
2022-11-30T01:16:13.156Z,28.33
2022-11-30T01:18:40.829Z,28.52
2022-11-30T01:21:15.109Z,29.67
2022-11-30T01:23:43.439Z,28.45
2022-11-30T01:26:11.857Z,29.35
2022-11-30T01:28:40.989Z,28.38
2022-11-30T01:31:11.350Z,30.02
2022-11-30T01:33:39.694Z,29.10
2022-11-30T01:36:14.494Z,28.48
2022-11-30T01:38:44.451Z,28.38
2022-11-30T01:41:15.047Z,27.50
2022-11-30T01:46:31.055Z,27.05
2022-11-30T01:49:07.715Z,28.35
2022-11-30T01:51:59.181Z,31.38
2022-11-30T01:54:36.153Z,27.45
2022-11-30T01:57:20.862Z,24.52
2022-11-30T01:59:52.241Z,24.33
2022-11-30T02:02:36.780Z,25.90
2022-11-30T02:05:05.028Z,27.35
2022-11-30T02:07:33.119Z,28.40
2022-11-30T02:10:01.110Z,27.80
2022-11-30T02:12:43.890Z,23.10
2022-11-30T02:15:22.159Z,26.65
2022-11-30T02:18:09.273Z,25.35
2022-11-30T02:21:27.636Z,25.63
2022-11-30T02:24:02.664Z,25.65
2022-11-30T02:26:33.160Z,26.45
2022-11-30T02:29:19.964Z,26.17
2022-11-30T02:32:07.733Z,23.75
2022-11-30T02:34:37.540Z,23.52
2022-11-30T02:37:08.334Z,23.73
2022-11-30T02:39:36.016Z,26.55
2022-11-30T02:42:03.766Z,23.08
2022-11-30T02:44:31.617Z,24.35
2022-11-30T02:47:06.380Z,24.60
2022-11-30T02:49:45.409Z,25.08
2022-11-30T02:52:14.930Z,23.83
2022-11-30T02:54:43.166Z,22.08
2022-11-30T02:57:10.808Z,22.90
2022-11-30T02:59:39.497Z,21.70
2022-11-30T03:02:07.622Z,23.02
2022-11-30T03:04:35.256Z,23.00
2022-11-30T03:07:02.968Z,21.35
2022-11-30T03:09:30.577Z,21.75
2022-11-30T03:11:58.347Z,20.65
2022-11-30T03:14:25.990Z,21.52
2022-11-30T03:16:53.685Z,21.83
2022-11-30T03:19:21.310Z,21.00
2022-11-30T03:21:48.965Z,21.13
2022-11-30T03:24:16.671Z,21.73
2022-11-30T03:26:44.360Z,20.77
2022-11-30T03:29:12.120Z,23.00
2022-11-30T03:31:39.781Z,21.23
2022-11-30T03:34:07.451Z,21.27
2022-11-30T03:36:35.052Z,25.08
2022-11-30T03:39:03.331Z,23.60
2022-11-30T03:41:31.094Z,22.55
2022-11-30T03:43:59.118Z,25.35
2022-11-30T03:46:27.660Z,26.25
2022-11-30T03:48:55.326Z,24.48
2022-11-30T03:51:22.930Z,25.52
2022-11-30T03:53:50.593Z,26.23
2022-11-30T03:56:18.308Z,25.90
2022-11-30T03:58:45.986Z,24.08
2022-11-30T04:01:17.455Z,25.95
2022-11-30T04:03:45.423Z,25.52
2022-11-30T04:06:13.361Z,23.60
2022-11-30T04:08:41.745Z,23.02
2022-11-30T04:11:09.817Z,24.75
2022-11-30T04:13:38.923Z,24.45
2022-11-30T04:16:07.094Z,23.85
2022-11-30T04:18:36.515Z,23.75
2022-11-30T04:21:05.418Z,23.90
2022-11-30T04:23:35.649Z,22.85
2022-11-30T04:26:08.637Z,25.27
2022-11-30T04:28:36.312Z,23.63
2022-11-30T04:31:04.371Z,23.05
2022-11-30T04:33:32.072Z,22.73
2022-11-30T04:36:02.048Z,26.02
2022-11-30T04:38:30.081Z,23.00
2022-11-30T04:40:58.059Z,24.98
2022-11-30T04:43:27.911Z,22.80
2022-11-30T04:45:55.547Z,22.88
2022-11-30T04:48:23.160Z,24.10
2022-11-30T04:50:50.785Z,24.00
2022-11-30T04:53:18.382Z,21.98
2022-11-30T04:55:46.004Z,23.83
2022-11-30T04:58:13.564Z,25.25
2022-11-30T05:00:41.123Z,25.88
2022-11-30T05:03:08.716Z,24.15
2022-11-30T05:05:36.396Z,26.75
2022-11-30T05:08:04.085Z,26.13
2022-11-30T05:10:33.916Z,23.92
2022-11-30T05:13:01.979Z,25.77
2022-11-30T05:15:29.560Z,26.10
2022-11-30T05:18:01.821Z,25.35
2022-11-30T05:20:29.817Z,26.55
2022-11-30T05:22:58.025Z,26.95
2022-11-30T05:25:25.641Z,29.08
2022-11-30T05:27:53.336Z,22.92
2022-11-30T05:30:21.027Z,28.08
2022-11-30T05:32:48.717Z,23.60
2022-11-30T05:35:16.489Z,25.67
2022-11-30T05:37:44.054Z,25.40
2022-11-30T05:40:12.030Z,24.17
2022-11-30T05:42:39.664Z,24.88
2022-11-30T05:45:07.789Z,25.85
2022-11-30T05:47:35.500Z,27.55
2022-11-30T05:50:03.211Z,23.67
2022-11-30T05:52:30.998Z,25.58
2022-11-30T05:54:59.546Z,23.00
2022-11-30T05:57:27.148Z,25.13
2022-11-30T05:59:54.743Z,27.15
2022-11-30T06:02:27.788Z,25.63
2022-11-30T06:04:55.858Z,26.75
2022-11-30T06:07:23.530Z,24.88
2022-11-30T06:09:51.381Z,23.70
2022-11-30T06:12:19.070Z,24.17
2022-11-30T06:14:46.837Z,22.17
2022-11-30T06:17:14.688Z,23.00
2022-11-30T06:19:42.328Z,21.77
2022-11-30T06:22:10.122Z,23.15
2022-11-30T06:24:37.701Z,22.70
2022-11-30T06:27:05.376Z,24.08
2022-11-30T06:29:33.144Z,22.33
2022-11-30T06:32:00.867Z,25.90
2022-11-30T06:34:31.964Z,22.90
2022-11-30T06:36:59.636Z,25.63
2022-11-30T06:39:58.046Z,25.88
2022-11-30T06:42:14.796Z,23.88
2022-11-30T06:44:42.470Z,24.02
2022-11-30T06:47:10.069Z,23.63
2022-11-30T06:49:38.973Z,22.38
2022-11-30T06:52:06.662Z,24.27
2022-11-30T06:54:34.382Z,24.92
2022-11-30T06:57:01.954Z,24.23
2022-11-30T06:59:29.810Z,24.25
2022-11-30T07:01:57.494Z,26.05
2022-11-30T07:04:25.239Z,25.42
2022-11-30T07:06:52.904Z,22.08
2022-11-30T07:09:20.594Z,22.98
2022-11-30T07:11:48.398Z,25.20
2022-11-30T07:14:16.061Z,23.83
2022-11-30T07:16:43.646Z,24.80
2022-11-30T07:19:11.373Z,22.17
2022-11-30T07:21:42.978Z,23.10
2022-11-30T07:24:32.769Z,21.45
2022-11-30T07:27:02.379Z,24.63
2022-11-30T07:29:30.137Z,23.77
2022-11-30T07:31:58.199Z,23.70
2022-11-30T07:34:26.536Z,22.27
2022-11-30T07:36:54.285Z,23.42
2022-11-30T07:39:21.847Z,25.83
2022-11-30T07:41:49.603Z,26.27
2022-11-30T07:44:19.053Z,26.98
2022-11-30T07:46:46.591Z,27.45
2022-11-30T07:49:14.202Z,23.55
2022-11-30T07:51:41.791Z,22.83
2022-11-30T07:54:09.532Z,22.65
2022-11-30T07:56:37.174Z,20.95
2022-11-30T07:59:04.783Z,24.95
2022-11-30T08:01:33.652Z,22.60
2022-11-30T08:04:01.648Z,26.60
2022-11-30T08:06:31.133Z,24.73
2022-11-30T08:09:01.286Z,22.10
2022-11-30T08:11:31.126Z,21.90
2022-11-30T08:13:58.856Z,24.83
2022-11-30T08:16:28.830Z,26.08
2022-11-30T08:18:57.546Z,23.25
2022-11-30T08:21:25.482Z,24.23
2022-11-30T08:23:59.084Z,24.95
2022-11-30T08:26:30.414Z,21.88
2022-11-30T08:29:00.093Z,24.15
2022-11-30T08:31:33.607Z,20.60
2022-11-30T08:34:07.495Z,20.50
2022-11-30T08:36:35.172Z,21.67
2022-11-30T08:39:05.246Z,20.02
2022-11-30T08:41:34.919Z,20.77
2022-11-30T08:44:02.954Z,16.13
2022-11-30T08:49:22.012Z,17.38
2022-11-30T08:54:45.350Z,14.15
2022-11-30T08:57:14.791Z,20.23
2022-11-30T08:59:42.409Z,19.80
2022-11-30T09:02:17.000Z,17.10
2022-11-30T09:04:45.535Z,18.00
2022-11-30T09:07:13.490Z,18.20
2022-11-30T09:09:41.141Z,16.98
2022-11-30T09:12:09.343Z,12.50
2022-11-30T09:14:37.211Z,12.48
2022-11-30T09:17:05.055Z,12.45
2022-11-30T09:19:32.799Z,13.10
2022-11-30T09:22:00.664Z,13.77
2022-11-30T09:24:28.366Z,14.18
2022-11-30T09:26:57.585Z,9.45
2022-11-30T09:29:25.162Z,13.32
2022-11-30T09:31:52.829Z,14.70
2022-11-30T09:34:20.735Z,14.32
2022-11-30T09:36:48.388Z,14.85
2022-11-30T09:39:16.413Z,15.80
2022-11-30T09:42:02.175Z,14.38
2022-11-30T09:45:03.010Z,13.95
2022-11-30T09:47:50.080Z,17.42
2022-11-30T09:50:21.252Z,15.35
2022-11-30T09:53:15.514Z,17.05
2022-11-30T09:55:44.524Z,15.63
2022-11-30T09:58:43.723Z,15.65
2022-11-30T10:01:20.284Z,16.30
2022-11-30T10:03:48.677Z,16.33
2022-11-30T10:06:25.570Z,16.50
2022-11-30T10:09:25.910Z,16.05
2022-11-30T10:11:56.595Z,18.05
2022-11-30T10:14:49.198Z,15.75
2022-11-30T10:17:26.329Z,16.10
2022-11-30T10:20:30.426Z,17.65
2022-11-30T10:23:15.318Z,17.58
2022-11-30T10:25:49.135Z,18.00
2022-11-30T10:28:46.481Z,17.13
2022-11-30T10:31:13.918Z,13.30
2022-11-30T10:33:51.457Z,13.57
2022-11-30T10:36:37.207Z,13.57
2022-11-30T10:39:22.410Z,16.75
2022-11-30T10:41:58.901Z,13.65
2022-11-30T10:44:49.313Z,16.13
2022-11-30T10:47:22.975Z,16.98
2022-11-30T10:49:52.803Z,16.35
2022-11-30T10:52:31.774Z,16.53
2022-11-30T10:55:04.838Z,17.92
2022-11-30T10:57:33.648Z,17.63
2022-11-30T11:00:05.319Z,18.45
2022-11-30T11:02:41.220Z,16.75
2022-11-30T11:05:23.040Z,15.45
2022-11-30T11:08:06.278Z,17.60
2022-11-30T11:10:43.269Z,18.15
2022-11-30T11:13:37.704Z,17.05
2022-11-30T11:16:07.791Z,17.75
2022-11-30T11:18:37.199Z,17.95
2022-11-30T11:21:18.519Z,18.67
2022-11-30T11:23:47.778Z,18.90
2022-11-30T11:26:25.347Z,19.55
2022-11-30T11:28:55.660Z,16.55
2022-11-30T11:31:46.228Z,13.88
2022-11-30T11:34:26.550Z,14.18
2022-11-30T11:37:21.651Z,14.30
2022-11-30T11:40:15.947Z,12.43
2022-11-30T11:42:48.683Z,12.15
2022-11-30T11:45:23.704Z,11.65
2022-11-30T11:48:06.157Z,12.85
2022-11-30T11:51:05.467Z,11.10
2022-11-30T11:53:55.420Z,12.40
2022-11-30T11:56:34.320Z,12.18
2022-11-30T11:59:18.080Z,13.60
2022-11-30T12:01:48.463Z,14.77
2022-11-30T12:04:36.183Z,14.38
2022-11-30T12:07:17.945Z,14.05
2022-11-30T12:10:12.640Z,14.23
2022-11-30T12:12:54.611Z,17.60
2022-11-30T12:15:43.676Z,13.95
2022-11-30T12:18:38.631Z,15.02
2022-11-30T12:21:22.382Z,15.05
2022-11-30T12:24:05.103Z,16.38
2022-11-30T12:26:35.640Z,15.35
2022-11-30T12:29:23.663Z,17.70
2022-11-30T12:32:02.987Z,13.93
2022-11-30T12:34:49.348Z,15.73
2022-11-30T12:37:57.302Z,16.60
2022-11-30T12:40:50.759Z,16.90
2022-11-30T12:43:52.441Z,15.38
2022-11-30T12:46:28.595Z,14.25
2022-11-30T12:49:24.000Z,15.23
2022-11-30T12:52:02.334Z,14.63
2022-11-30T12:54:49.384Z,17.00
2022-11-30T12:57:27.690Z,14.48
2022-11-30T13:00:14.309Z,14.05
2022-11-30T13:02:57.264Z,12.52
2022-11-30T13:05:40.037Z,12.52
2022-11-30T13:08:27.467Z,12.75
2022-11-30T13:11:01.175Z,12.25
2022-11-30T13:13:31.657Z,13.30
2022-11-30T13:16:00.947Z,13.18
2022-11-30T13:18:30.369Z,14.57
2022-11-30T13:21:21.773Z,13.77
2022-11-30T13:24:14.802Z,13.93
2022-11-30T13:27:06.452Z,14.95
2022-11-30T13:29:46.191Z,13.77
2022-11-30T13:35:23.233Z,12.20
2022-11-30T13:38:34.519Z,11.90
2022-11-30T13:41:03.118Z,13.10
2022-11-30T13:43:36.425Z,13.13
2022-11-30T13:46:22.481Z,14.32
2022-11-30T13:49:08.649Z,14.10
2022-11-30T13:51:39.670Z,14.65
2022-11-30T13:54:42.961Z,14.38
2022-11-30T13:57:25.640Z,15.30
2022-11-30T14:00:01.020Z,13.65
2022-11-30T14:02:36.608Z,15.65
2022-11-30T14:05:16.716Z,14.48
2022-11-30T14:08:07.454Z,17.75
2022-11-30T14:13:11.922Z,15.25
2022-11-30T14:15:39.467Z,15.57
2022-11-30T14:18:10.241Z,13.80
2022-11-30T14:20:55.296Z,19.50
2022-11-30T14:23:27.996Z,16.60
2022-11-30T14:25:57.705Z,15.90
2022-11-30T14:28:44.560Z,14.45
2022-11-30T14:31:25.988Z,13.05
2022-11-30T14:34:27.315Z,16.10
2022-11-30T14:37:15.011Z,14.88
2022-11-30T14:39:45.634Z,16.10
2022-11-30T14:42:34.946Z,15.98
2022-11-30T14:45:03.180Z,14.68
2022-11-30T14:47:33.363Z,15.30
2022-11-30T14:50:04.478Z,17.95
2022-11-30T14:52:52.929Z,17.17
2022-11-30T14:55:45.551Z,18.67
2022-11-30T14:58:20.362Z,17.30
2022-11-30T15:00:48.810Z,16.25
2022-11-30T15:03:21.742Z,17.40
2022-11-30T15:06:01.724Z,17.10
2022-11-30T15:08:41.517Z,16.17
2022-11-30T15:11:29.492Z,19.67
2022-11-30T15:14:07.230Z,20.48
2022-11-30T15:16:34.982Z,19.20
2022-11-30T15:19:27.721Z,19.42
2022-11-30T15:21:57.211Z,20.25
2022-11-30T15:24:26.564Z,17.88
2022-11-30T15:26:56.270Z,21.63
2022-11-30T15:29:47.270Z,18.25
2022-11-30T15:32:23.216Z,20.95
2022-11-30T15:35:08.572Z,21.33
2022-11-30T15:37:41.240Z,21.00
2022-11-30T15:40:11.018Z,19.88
2022-11-30T15:42:40.639Z,21.97
2022-11-30T15:45:22.664Z,21.30
2022-11-30T15:47:51.153Z,21.48
2022-11-30T15:50:35.198Z,23.63
2022-11-30T15:53:27.135Z,22.55
2022-11-30T15:56:22.774Z,21.88
2022-11-30T15:59:06.410Z,21.45
2022-11-30T16:02:06.166Z,23.15
2022-11-30T16:05:13.860Z,22.70
2022-11-30T16:08:01.487Z,24.30
2022-11-30T16:10:38.099Z,22.42
2022-11-30T16:13:06.575Z,24.67
2022-11-30T16:15:47.380Z,25.75
2022-11-30T16:18:29.307Z,22.65
2022-11-30T16:21:00.380Z,23.42
2022-11-30T16:23:28.494Z,28.30
2022-11-30T16:25:56.512Z,23.73
2022-11-30T16:28:24.238Z,22.63
2022-11-30T16:30:59.150Z,21.42
2022-11-30T16:33:27.855Z,23.50
2022-11-30T16:35:59.594Z,22.38
2022-11-30T16:38:27.989Z,22.63
2022-11-30T16:40:56.358Z,23.63
2022-11-30T16:43:26.419Z,23.50
2022-11-30T16:45:54.210Z,22.85
2022-11-30T16:48:24.288Z,23.65
2022-11-30T16:50:51.990Z,24.35
2022-11-30T16:53:19.651Z,23.70
2022-11-30T16:55:49.741Z,22.80
2022-11-30T16:58:17.444Z,22.52
2022-11-30T17:00:45.120Z,23.85
2022-11-30T17:03:23.811Z,26.48
2022-11-30T17:05:51.654Z,24.70
2022-11-30T17:08:22.078Z,25.83
2022-11-30T17:10:53.403Z,24.35
2022-11-30T17:13:21.395Z,25.15
2022-11-30T17:15:49.474Z,24.35
2022-11-30T17:18:17.602Z,26.67
2022-11-30T17:20:45.375Z,22.77
2022-11-30T17:23:13.003Z,28.00
2022-11-30T17:25:40.673Z,27.55
2022-11-30T17:28:08.299Z,25.17
2022-11-30T17:30:36.674Z,25.67
2022-11-30T17:33:04.421Z,26.35
2022-11-30T17:35:32.295Z,25.65
2022-11-30T17:38:00.485Z,29.13
2022-11-30T17:40:29.352Z,26.88
2022-11-30T17:42:59.576Z,25.27
2022-11-30T17:45:27.422Z,28.27
2022-11-30T17:47:55.122Z,27.42
2022-11-30T17:50:22.841Z,26.83
2022-11-30T17:52:50.480Z,26.02
2022-11-30T17:55:21.203Z,25.65
2022-11-30T17:57:49.016Z,26.60
2022-11-30T18:00:17.388Z,28.92
2022-11-30T18:02:45.260Z,30.95
2022-11-30T18:05:13.031Z,28.50
2022-11-30T18:07:41.999Z,30.90
2022-11-30T18:10:10.754Z,29.58
2022-11-30T18:12:38.498Z,26.95
2022-11-30T18:15:07.001Z,26.98
2022-11-30T18:17:35.241Z,24.92
2022-11-30T18:20:03.209Z,26.58
2022-11-30T18:22:31.342Z,25.90
2022-11-30T18:24:59.127Z,26.83
2022-11-30T18:27:26.885Z,27.13
2022-11-30T18:29:54.661Z,27.30
2022-11-30T18:32:23.008Z,25.58
2022-11-30T18:34:50.823Z,28.60
2022-11-30T18:37:18.644Z,28.08
2022-11-30T18:39:46.354Z,28.20
2022-11-30T18:42:14.207Z,28.17
2022-11-30T18:44:41.924Z,26.27
2022-11-30T18:47:09.555Z,26.42
2022-11-30T18:49:37.202Z,31.55
2022-11-30T18:52:04.917Z,28.25
2022-11-30T18:54:32.564Z,27.65
2022-11-30T18:57:00.244Z,27.95
2022-11-30T18:59:27.875Z,27.75
2022-11-30T19:01:55.606Z,30.17
2022-11-30T19:04:25.728Z,30.67
2022-11-30T19:06:53.700Z,30.52
2022-11-30T19:09:22.604Z,30.30
2022-11-30T19:11:50.935Z,32.08
2022-11-30T19:14:18.746Z,30.27
2022-11-30T19:16:47.273Z,29.05
2022-11-30T19:19:15.144Z,30.90
2022-11-30T19:21:44.950Z,30.20
2022-11-30T19:24:12.706Z,30.48
2022-11-30T19:26:40.443Z,29.50
2022-11-30T19:29:10.493Z,32.88
2022-11-30T19:31:38.189Z,31.55
2022-11-30T19:34:12.050Z,32.13
2022-11-30T19:36:40.747Z,35.15
2022-11-30T19:39:10.023Z,34.20
2022-11-30T19:41:37.629Z,32.40
2022-11-30T19:44:05.362Z,32.17
2022-11-30T19:46:34.545Z,31.75
2022-11-30T19:49:02.517Z,30.77
2022-11-30T19:51:31.060Z,29.98
2022-11-30T19:54:01.507Z,29.45
2022-11-30T19:56:31.285Z,28.73
2022-11-30T19:59:04.577Z,31.13
2022-11-30T20:01:33.987Z,30.55
2022-11-30T20:04:02.076Z,32.95
2022-11-30T20:06:36.105Z,33.40
2022-11-30T20:09:05.334Z,33.17
2022-11-30T20:11:33.412Z,33.97
2022-11-30T20:14:01.086Z,34.97
2022-11-30T20:16:29.339Z,32.78
2022-11-30T20:19:00.835Z,32.03
2022-11-30T20:21:34.362Z,32.22
2022-11-30T20:24:06.903Z,33.90
2022-11-30T20:26:37.131Z,36.53
2022-11-30T20:29:06.895Z,36.10
2022-11-30T20:31:36.095Z,31.73
2022-11-30T20:36:33.016Z,33.03
2022-11-30T20:39:01.284Z,33.72
2022-11-30T20:41:29.197Z,34.50
2022-11-30T20:43:57.524Z,32.75
2022-11-30T20:46:29.468Z,34.58
2022-11-30T20:48:58.372Z,31.00
2022-11-30T20:51:32.540Z,34.75
2022-11-30T20:54:07.047Z,31.77
2022-11-30T20:56:37.230Z,32.60
2022-11-30T20:59:08.511Z,31.98
2022-11-30T21:01:36.519Z,35.50
2022-11-30T21:04:04.582Z,34.33
2022-11-30T21:06:32.998Z,31.15
2022-11-30T21:09:00.874Z,30.77
2022-11-30T21:11:30.810Z,32.47
2022-11-30T21:13:58.772Z,32.53
2022-11-30T21:16:29.675Z,33.63
2022-11-30T21:18:59.647Z,33.20
2022-11-30T21:21:35.398Z,33.20
2022-11-30T21:24:06.401Z,33.33
2022-11-30T21:26:39.758Z,34.80
2022-11-30T21:29:11.507Z,36.67
2022-11-30T21:31:39.448Z,34.17
2022-11-30T21:34:07.257Z,36.42
2022-11-30T21:36:35.233Z,34.78
2022-11-30T21:39:07.081Z,35.75
2022-11-30T21:41:37.024Z,35.42
2022-11-30T21:44:06.026Z,33.20
2022-11-30T21:46:34.260Z,35.85
2022-11-30T21:49:02.457Z,33.47
2022-11-30T21:51:32.010Z,35.65
2022-11-30T21:54:05.265Z,35.20
2022-11-30T21:56:35.505Z,33.15
2022-11-30T21:59:05.895Z,35.25
2022-11-30T22:01:37.248Z,34.65
2022-11-30T22:04:06.781Z,35.33
2022-11-30T22:06:36.580Z,35.45
2022-11-30T22:09:09.804Z,34.00
2022-11-30T22:11:42.501Z,35.00
2022-11-30T22:14:18.360Z,35.15
2022-11-30T22:16:46.055Z,35.05
2022-11-30T22:19:13.646Z,36.78
2022-11-30T22:21:45.304Z,40.20
2022-11-30T22:24:16.025Z,38.05
2022-11-30T22:26:45.126Z,40.05
2022-11-30T22:29:16.134Z,42.25
2022-11-30T22:31:46.104Z,38.50
2022-11-30T22:34:13.875Z,37.75
2022-11-30T22:36:43.591Z,37.97
2022-11-30T22:39:17.632Z,37.47
2022-11-30T22:41:48.608Z,38.08
2022-11-30T22:44:21.171Z,39.83
2022-11-30T22:46:48.959Z,35.95
2022-11-30T22:49:21.158Z,37.33
2022-11-30T22:51:50.071Z,36.63
2022-11-30T22:54:18.146Z,38.45
2022-11-30T22:56:46.890Z,41.90
2022-11-30T22:59:15.167Z,37.90
2022-11-30T23:01:45.905Z,38.33
2022-11-30T23:06:43.692Z,37.58
2022-11-30T23:09:20.361Z,38.13
2022-11-30T23:11:48.852Z,38.45
2022-11-30T23:14:17.154Z,37.53
2022-11-30T23:16:45.520Z,37.63
2022-11-30T23:19:13.489Z,38.30
2022-11-30T23:21:44.973Z,41.38
2022-11-30T23:24:20.264Z,40.72
2022-11-30T23:26:48.745Z,37.88
2022-11-30T23:29:17.722Z,39.08
2022-11-30T23:31:46.472Z,40.08
2022-11-30T23:34:17.740Z,37.50
2022-11-30T23:36:45.723Z,39.75
2022-11-30T23:39:15.750Z,38.55
2022-11-30T23:41:43.641Z,37.55
2022-11-30T23:44:11.726Z,39.97
2022-11-30T23:46:39.840Z,38.10
2022-11-30T23:49:08.374Z,41.40
2022-11-30T23:51:36.048Z,42.28
2022-11-30T23:54:03.955Z,42.90
2022-11-30T23:56:31.557Z,42.97
2022-11-30T23:58:59.282Z,41.25
